Date,TemperatureHighF,TemperatureAvgF,TemperatureLowF,DewpointHighF,DewpointAvgF,DewpointLowF,HumidityHigh,HumidityAvg,HumidityLow,PressureMaxIn,PressureMinIn,WindSpeedMaxMPH,WindSpeedAvgMPH,GustSpeedMaxMPH,PrecipitationSumIn
2013-1-1,48.8,45.2,41.0,48.5,39.7,27.2,100,83,49,30.09,29.92,10,0,10,0.24
2013-1-2,47.9,43.5,38.4,47.2,40.6,36.3,100,90,67,30.18,29.90,12,1,12,0.24
2013-1-3,43.4,37.6,25.8,37.9,34.6,24.3,96,89,79,30.27,30.13,6,0,6,0.00
2013-1-4,50.2,35.0,20.7,30.6,22.7,19.0,97,66,33,30.32,30.19,14,2,16,0.00
2013-1-5,49.4,35.8,23.7,32.1,24.3,18.8,83,65,37,30.39,30.24,8,1,9,0.00
2013-1-6,51.0,40.8,33.2,37.8,34.5,29.7,93,79,56,30.24,30.05,4,0,6,0.01
2013-1-7,52.7,36.0,24.7,33.7,28.3,23.5,98,77,43,30.43,30.18,10,1,12,0.00
2013-1-8,55.7,38.1,23.8,40.9,32.4,22.1,96,82,50,30.48,30.35,5,0,6,0.00
2013-1-9,67.5,48.0,31.9,51.8,42.1,30.9,99,82,56,30.44,30.33,6,0,7,0.00
2013-1-10,65.8,51.1,41.3,48.2,42.3,36.6,99,76,40,30.52,30.40,9,0,10,0.00
2013-1-11,48.8,44.6,39.9,46.5,42.0,35.3,100,92,61,30.41,30.15,6,0,7,0.15
2013-1-12,72.5,56.4,46.1,66.1,55.0,46.0,100,96,78,30.15,30.07,10,0,11,0.00
2013-1-13,74.5,59.6,45.4,64.1,56.2,45.3,100,90,68,30.12,30.02,12,1,19,0.01
2013-1-14,65.1,61.3,57.5,64.5,60.1,56.1,100,96,87,30.12,30.05,6,0,7,0.10
2013-1-15,59.0,44.6,42.5,58.9,44.4,42.4,100,99,98,30.22,30.05,13,1,15,0.09
2013-1-16,48.4,43.9,40.1,48.3,43.8,40.0,100,100,100,30.06,29.95,7,0,9,0.18
2013-1-17,49.4,44.6,31.5,49.2,44.3,31.0,100,99,96,30.15,29.86,18,2,19,1.24
2013-1-18,44.3,33.8,25.1,34.4,28.8,22.9,100,84,46,30.54,30.14,14,1,14,0.36
2013-1-19,54.3,35.3,20.5,32.9,26.8,19.1,98,75,35,30.50,30.14,7,0,10,0.01
2013-1-20,63.1,44.5,31.1,37.6,31.6,27.1,88,64,34,30.15,29.97,17,2,17,0.00
2013-1-21,59.5,41.1,24.5,35.0,26.3,15.4,98,62,29,30.08,29.86,15,1,19,0.00
2013-1-22,38.4,31.0,19.8,20.8,6.9,-3.5,73,38,17,30.29,29.95,20,2,20,0.00
2013-1-23,40.5,26.3,13.7,17.3,12.5,6.2,86,59,31,30.38,30.04,13,1,14,0.00
2013-1-24,37.9,29.3,22.4,22.7,10.5,-0.3,80,48,26,30.52,29.96,21,2,23,0.00
2013-1-25,25.6,22.3,17.3,22.5,13.3,1.1,88,69,41,30.53,30.11,5,0,8,0.02
2013-1-26,38.3,27.2,24.7,29.2,24.5,22.1,95,90,67,30.42,30.09,5,0,5,0.10
2013-1-27,40.7,29.6,17.5,28.1,23.0,15.4,100,78,54,30.61,30.40,11,1,12,0.01
2013-1-28,50.1,41.3,30.7,45.0,34.3,25.3,91,77,57,30.51,30.22,12,1,12,0.03
2013-1-29,73.6,56.4,39.3,59.4,50.6,39.0,100,83,54,30.23,30.02,14,1,14,0.00
2013-1-30,72.6,65.9,57.6,63.3,60.5,54.3,95,83,72,30.03,29.37,27,5,37,0.36
2013-1-31,58.5,44.3,29.2,54.9,29.3,19.0,91,58,33,30.01,29.43,32,5,32,0.13
2013-2-1,39.1,32.5,20.5,26.1,12.8,1.3,77,46,23,30.39,29.87,28,4,31,0.00
2013-2-2,43.5,31.4,15.1,31.2,13.7,7.1,86,51,27,30.41,30.02,14,1,18,0.00
2013-2-3,49.5,38.9,30.1,33.3,27.5,21.1,92,66,41,30.02,29.83,15,2,24,0.00
2013-2-4,49.0,36.0,23.0,26.7,22.3,18.7,86,60,35,30.15,29.99,9,1,11,0.00
2013-2-5,62.1,43.7,32.9,36.1,30.8,26.1,86,63,35,30.00,29.86,11,1,13,0.00
2013-2-6,62.5,41.6,26.5,37.6,27.5,20.6,97,65,20,30.26,29.96,14,1,15,0.00
2013-2-7,45.2,38.3,28.5,39.9,33.2,24.6,95,82,66,30.33,29.99,11,1,11,0.47
2013-2-8,56.5,44.3,36.2,45.2,37.6,26.4,100,79,49,30.06,29.81,19,4,20,0.31
2013-2-9,53.8,37.4,25.5,26.8,21.9,14.0,88,59,22,30.36,30.04,16,2,17,0.00
2013-2-10,53.2,36.8,21.2,37.4,23.7,18.2,93,64,29,30.49,30.19,12,1,12,0.07
2013-2-11,61.2,53.9,41.6,60.1,52.7,37.4,100,96,85,30.20,29.89,15,1,15,0.07
2013-2-12,59.7,50.4,42.3,52.1,36.0,25.8,100,63,29,30.08,29.89,14,2,15,0.00
2013-2-13,46.1,43.7,38.7,45.2,41.8,32.9,98,93,73,29.94,29.61,15,1,18,0.20
2013-2-14,51.7,38.3,26.8,37.8,30.6,25.8,99,77,44,30.06,29.83,10,1,11,0.00
2013-2-15,62.9,41.8,24.7,40.6,29.8,23.3,99,69,26,30.09,29.91,13,1,13,0.01
2013-2-16,43.1,34.0,27.6,32.6,30.2,21.0,97,87,66,29.96,29.83,11,1,14,0.33
2013-2-17,38.0,28.0,19.9,21.0,13.1,6.2,81,56,28,30.29,29.93,25,4,26,0.01
2013-2-18,52.4,33.2,13.9,23.8,18.0,10.5,93,58,27,30.41,30.23,10,1,13,0.00
2013-2-19,48.0,38.6,27.8,47.1,34.5,21.8,98,85,60,30.23,29.86,16,1,19,0.26
2013-2-20,53.4,37.4,24.9,34.1,21.4,10.7,96,59,19,30.14,29.96,17,2,17,0.01
2013-2-21,55.6,38.1,20.4,26.1,19.5,13.2,91,53,20,30.24,30.10,11,1,13,0.00
2013-2-22,41.7,34.5,31.5,33.7,30.6,21.0,97,86,45,30.34,30.12,9,1,9,0.39
2013-2-23,41.8,38.1,34.4,41.5,37.7,33.6,100,99,97,30.12,29.81,10,1,10,0.52
2013-2-24,63.0,46.8,31.8,47.2,37.3,25.1,100,76,25,30.03,29.79,17,2,18,0.03
2013-2-25,41.0,34.5,28.3,29.6,23.7,20.1,95,66,48,30.23,30.03,13,1,15,0.00
2013-2-26,55.3,42.5,29.7,55.2,39.2,23.5,100,89,61,30.14,29.53,14,2,18,0.73
2013-2-27,59.7,47.0,36.4,43.7,39.0,33.3,100,77,44,29.77,29.61,15,2,17,0.00
2013-2-28,49.0,38.8,30.0,39.4,29.3,24.0,99,72,41,29.85,29.69,21,2,21,0.00
2013-3-1,47.2,36.5,24.0,31.9,26.4,21.6,97,69,46,29.91,29.83,14,1,17,0.00
2013-3-2,45.9,35.2,25.2,29.4,23.8,16.8,91,66,45,29.92,29.81,16,2,17,0.00
2013-3-3,45.6,34.4,24.8,22.7,18.2,15.2,73,52,38,29.98,29.84,16,3,20,0.00
2013-3-4,51.7,34.3,21.2,22.3,16.3,11.5,76,52,21,30.12,29.97,17,2,20,0.00
2013-3-5,45.1,39.2,29.9,43.9,34.7,22.3,99,85,54,30.06,29.55,10,1,10,0.19
2013-3-6,46.8,40.5,34.4,44.2,30.6,24.9,100,70,48,30.04,29.51,30,7,32,0.04
2013-3-7,52.2,40.9,31.6,30.9,27.1,22.9,76,59,42,30.24,30.03,16,3,20,0.00
2013-3-8,55.7,41.7,27.0,27.1,23.7,21.5,81,52,28,30.29,30.15,18,3,21,0.00
2013-3-9,64.0,43.5,25.7,32.8,27.7,22.4,91,59,26,30.34,30.22,11,1,11,0.00
2013-3-10,67.3,46.5,26.3,36.7,29.1,24.8,97,59,22,30.31,30.18,10,1,12,0.00
2013-3-11,67.3,52.3,33.2,51.9,41.5,23.5,86,68,50,30.22,29.89,20,2,20,0.00
2013-3-12,70.5,59.6,46.4,61.6,51.5,30.9,100,77,41,29.94,29.73,16,3,19,0.54
2013-3-13,56.2,44.6,30.5,34.8,26.1,16.5,93,51,29,30.13,29.94,22,4,25,0.00
2013-3-14,53.9,38.1,25.8,24.9,18.4,14.3,76,47,23,30.25,30.11,19,3,19,0.00
2013-3-15,62.5,43.9,23.7,35.6,27.5,18.9,87,56,32,30.19,29.88,14,1,21,0.00
2013-3-16,78.1,59.6,42.9,51.4,43.4,33.2,79,58,34,29.88,29.63,20,2,22,0.00
2013-3-17,57.7,49.2,39.8,51.9,43.4,35.7,99,81,63,30.16,29.80,12,2,16,0.00
2013-3-18,40.4,38.5,36.8,39.3,37.3,35.5,98,95,89,30.19,29.82,13,2,14,0.40
2013-3-19,66.9,50.2,38.3,47.1,32.8,13.5,100,62,16,30.01,29.81,19,3,23,0.00
2013-3-20,57.1,44.5,32.4,26.9,16.9,8.5,77,36,18,30.11,29.79,14,1,16,0.00
2013-3-21,44.2,37.9,28.8,33.4,18.0,8.0,84,47,26,29.98,29.72,20,4,22,0.00
2013-3-22,52.7,36.0,20.6,24.4,14.2,9.2,71,44,21,30.09,29.96,16,2,16,0.00
2013-3-23,56.9,42.1,31.6,33.9,27.3,20.5,82,59,34,30.05,29.89,7,0,7,0.00
2013-3-24,39.6,36.4,31.2,36.9,33.5,27.1,94,89,81,29.93,29.55,15,1,15,0.83
2013-3-25,47.7,39.3,33.8,37.6,28.7,20.8,97,70,39,29.82,29.56,24,4,25,0.01
2013-3-26,47.7,39.9,28.8,28.3,25.0,21.5,80,56,44,30.11,29.81,20,3,20,0.00
2013-3-27,51.4,39.2,26.5,28.4,23.2,19.3,88,56,30,30.23,30.11,24,4,25,0.00
2013-3-28,57.1,40.1,24.2,28.6,23.3,20.3,86,56,26,30.29,30.14,19,2,20,0.00
2013-3-29,59.6,42.6,24.4,32.7,26.0,21.3,93,58,23,30.34,30.17,13,1,14,0.00
2013-3-30,67.6,51.0,36.2,42.4,35.3,27.3,85,59,28,30.24,30.06,11,1,12,0.00
2013-3-31,68.6,55.4,46.6,56.6,50.2,40.3,99,84,61,30.08,29.77,14,2,16,0.76
2013-4-1,71.9,58.9,48.9,54.9,46.4,35.1,100,70,30,29.95,29.79,19,2,21,0.03
2013-4-2,61.1,47.2,31.8,35.0,29.5,19.5,95,55,22,30.15,29.96,14,2,18,0.00
2013-4-3,60.2,45.9,32.4,34.5,26.7,17.0,85,53,20,30.29,30.12,15,1,15,0.00
2013-4-4,44.9,40.2,37.3,36.7,30.9,19.9,95,71,42,30.35,29.93,14,2,14,0.87
2013-4-5,66.2,47.7,36.5,48.6,40.6,35.9,99,80,39,30.01,29.86,11,2,13,0.03
2013-4-6,65.8,48.6,30.9,41.0,32.6,25.4,99,61,24,30.25,30.01,12,1,14,0.00
2013-4-7,72.5,55.0,35.1,46.8,39.2,31.3,92,59,33,30.27,30.08,14,1,16,0.00
2013-4-8,80.0,63.3,46.3,57.8,50.8,43.3,99,67,39,30.15,30.02,17,2,17,0.00
2013-4-9,85.7,69.6,53.1,61.4,55.8,51.3,100,65,37,30.16,30.02,12,1,14,0.00
2013-4-10,87.5,71.6,55.9,64.7,58.1,52.6,97,66,38,30.08,29.91,12,1,15,0.00
2013-4-11,81.3,70.3,60.0,64.6,60.0,54.8,90,71,48,29.97,29.75,14,2,16,0.00
2013-4-12,83.0,70.7,60.0,69.4,61.9,44.2,100,76,44,29.77,29.56,18,2,18,0.61
2013-4-13,75.5,60.7,44.3,47.2,42.4,37.5,87,55,26,29.99,29.74,12,2,14,0.00
2013-4-14,80.7,61.4,39.8,54.0,43.4,34.7,100,60,21,30.09,29.99,11,1,13,0.00
2013-4-15,71.5,62.6,56.9,59.1,56.2,53.6,97,81,59,30.18,29.98,10,1,12,0.07
2013-4-16,77.6,65.4,56.7,61.9,58.2,54.3,100,79,52,30.27,30.16,7,0,9,0.00
2013-4-17,81.8,66.8,52.4,66.6,60.7,52.1,100,83,52,30.21,30.08,11,1,12,0.00
2013-4-18,80.2,69.0,58.3,64.4,59.8,55.6,99,74,51,30.16,30.00,15,2,17,0.00
2013-4-19,82.5,69.5,62.9,68.8,64.3,60.4,99,85,60,30.01,29.67,21,2,28,0.81
2013-4-20,65.0,53.9,41.8,62.3,39.3,31.3,98,61,31,30.26,29.79,16,2,20,0.02
2013-4-21,62.0,49.3,36.5,41.9,37.8,33.6,97,67,43,30.47,30.26,15,2,17,0.01
2013-4-22,64.0,49.6,34.8,42.1,35.3,29.5,85,60,36,30.46,30.24,14,2,15,0.00
2013-4-23,69.5,54.4,45.5,52.2,45.9,41.8,93,74,49,30.27,30.09,12,1,12,0.01
2013-4-24,75.8,60.6,43.0,60.6,52.4,42.2,100,77,51,30.12,29.94,15,1,19,0.01
2013-4-25,71.3,59.5,44.3,55.3,44.1,37.0,90,59,31,30.26,29.98,14,2,15,0.00
2013-4-26,73.0,55.1,37.0,48.4,39.9,32.0,99,65,24,30.41,30.25,11,1,13,0.00
2013-4-27,73.0,59.5,49.2,54.1,48.0,39.0,91,69,35,30.36,30.24,11,0,11,0.00
2013-4-28,58.3,55.1,52.3,54.7,51.9,49.1,100,89,75,30.25,30.06,9,0,9,1.03
2013-4-29,73.1,35.7,54.9,99.9,78.5,54.8,100,50,71,30.06,29.93,6,-445,7,0.08
2013-4-30,66.8,59.9,52.2,61.3,58.1,51.3,100,94,81,30.17,29.97,9,1,10,0.00
2013-5-1,62.1,57.7,52.4,59.5,56.4,51.8,100,96,88,30.29,30.14,14,2,14,0.02
2013-5-2,62.3,57.3,51.6,58.5,55.8,50.9,100,95,86,30.31,30.24,13,1,14,0.00
2013-5-3,67.9,57.1,46.9,57.9,50.6,42.4,100,81,53,30.25,30.14,15,2,17,0.01
2013-5-4,64.2,54.5,48.2,52.4,46.9,42.4,88,76,62,30.19,30.05,15,3,18,0.00
2013-5-5,57.4,53.5,49.0,54.4,49.0,43.9,92,85,76,30.08,29.95,13,3,17,0.02
2013-5-6,67.5,59.5,54.9,63.5,58.2,53.5,100,96,83,29.97,29.80,13,2,15,1.31
2013-5-7,71.0,58.4,49.2,61.4,53.2,47.5,100,86,45,29.92,29.83,13,1,14,0.01
2013-5-8,71.8,60.2,52.4,61.3,55.9,51.1,100,87,63,29.98,29.90,9,1,14,0.16
2013-5-9,81.0,65.6,53.9,65.4,58.0,53.8,100,80,44,30.04,29.96,10,1,12,0.00
2013-5-10,85.8,69.4,52.1,66.3,59.6,51.8,100,75,40,30.04,29.91,14,1,14,0.00
2013-5-11,80.5,70.8,65.1,68.4,62.8,57.5,99,77,55,29.92,29.76,13,1,15,0.11
2013-5-12,72.8,63.7,49.2,64.6,50.5,35.8,100,66,34,30.01,29.76,18,2,19,0.01
2013-5-13,66.3,53.4,40.3,44.1,38.5,32.1,97,62,30,30.17,30.01,15,1,18,0.00
2013-5-14,73.0,54.8,35.9,49.3,40.2,34.3,99,63,31,30.24,30.05,12,1,13,0.00
2013-5-15,88.5,69.0,49.7,67.4,55.1,43.4,82,64,44,30.05,29.87,12,1,13,0.00
2013-5-16,84.8,72.3,59.0,67.3,61.7,56.6,100,72,43,29.95,29.86,13,1,14,0.00
2013-5-17,87.2,72.8,59.0,67.4,62.6,57.8,100,74,43,30.05,29.95,9,0,11,0.00
2013-5-18,77.1,67.9,59.0,69.5,64.7,58.9,100,91,73,30.13,30.03,16,0,16,0.90
2013-5-19,79.1,68.3,63.4,73.2,67.1,63.3,100,97,78,30.12,30.01,12,1,12,0.16
2013-5-20,78.5,69.2,66.4,74.2,68.4,66.2,100,98,80,30.08,29.99,9,0,10,0.60
2013-5-21,83.5,72.7,66.5,77.3,70.5,65.9,100,94,76,30.02,29.91,11,1,11,0.03
2013-5-22,84.6,72.6,66.1,75.3,69.5,65.7,100,91,61,30.00,29.88,12,1,12,0.09
2013-5-23,79.1,71.2,65.3,72.6,68.4,65.2,100,92,72,29.93,29.78,11,1,11,0.25
2013-5-24,69.2,63.6,53.2,65.9,52.0,35.3,100,70,37,30.17,29.79,21,3,25,0.01
2013-5-25,74.8,57.4,41.1,54.8,42.0,34.8,91,61,30,30.26,30.11,13,1,14,0.00
2013-5-26,75.2,59.2,46.0,55.7,48.4,42.6,98,71,39,30.26,30.15,10,0,10,0.00
2013-5-27,81.2,64.3,47.3,60.8,53.5,46.5,100,73,37,30.26,30.12,10,1,10,0.00
2013-5-28,84.8,71.6,57.9,68.6,62.7,54.4,99,76,52,30.22,30.11,11,1,13,0.00
2013-5-29,85.2,73.1,59.0,68.0,63.7,57.8,100,75,50,30.21,30.12,11,1,11,0.00
2013-5-30,86.3,73.0,59.7,70.9,64.8,58.8,100,78,48,30.25,30.14,9,1,10,0.00
2013-5-31,87.5,75.2,63.1,71.4,66.7,62.2,100,77,49,30.20,30.07,9,1,11,0.00
2013-6-1,86.8,76.1,64.8,70.1,66.6,64.0,100,75,48,30.11,29.99,11,1,13,0.00
2013-6-2,86.3,75.5,66.7,72.0,67.3,63.3,98,77,54,30.02,29.87,20,1,20,0.24
2013-6-3,83.5,72.1,65.0,75.8,70.0,64.9,100,94,69,29.93,29.79,22,1,22,0.50
2013-6-4,78.3,69.8,63.1,69.7,66.1,62.5,100,89,69,30.07,29.91,9,1,11,0.00
2013-6-5,79.3,69.6,61.0,67.7,63.5,59.3,100,83,56,30.11,29.99,13,1,14,0.00
2013-6-6,73.9,69.9,64.3,73.8,67.3,58.9,100,92,69,29.99,29.78,11,1,13,0.39
2013-6-7,72.3,69.1,67.4,72.0,69.0,67.2,100,100,99,29.82,29.52,13,1,16,1.86
2013-6-8,84.5,72.2,64.7,74.2,68.8,64.6,100,90,61,30.07,29.79,15,1,16,0.06
2013-6-9,87.3,75.5,63.6,76.4,70.7,63.5,100,87,63,30.13,30.02,9,1,10,0.00
2013-6-10,83.5,73.8,70.3,78.0,72.6,69.8,100,97,81,30.06,29.85,14,1,18,0.66
2013-6-11,85.0,75.3,67.1,71.5,68.4,64.9,97,81,52,29.93,29.86,16,1,17,0.00
2013-6-12,90.3,76.5,61.4,77.9,70.9,61.3,100,85,61,29.95,29.82,14,1,15,0.00
2013-6-13,93.5,77.6,66.0,80.0,72.2,62.8,100,86,51,29.83,29.57,25,1,40,0.25
2013-6-14,81.4,70.6,57.7,66.1,60.7,56.3,100,74,45,29.99,29.70,16,2,16,0.01
2013-6-15,85.0,70.8,56.0,67.5,61.9,55.9,100,77,45,30.10,29.99,10,1,11,0.00
2013-6-16,86.9,74.8,64.4,73.6,65.4,57.5,95,74,56,30.10,29.97,13,1,14,0.00
2013-6-17,86.9,75.3,69.4,74.6,68.8,64.1,94,81,61,30.00,29.89,9,1,9,0.00
2013-6-18,83.5,72.7,68.3,75.0,69.9,67.0,100,92,71,29.94,29.73,13,1,15,0.68
2013-6-19,82.8,72.2,63.9,73.1,68.2,63.8,100,89,68,30.09,29.85,11,1,12,0.01
2013-6-20,83.5,71.9,61.5,67.1,64.1,61.4,100,79,52,30.21,30.09,10,1,11,0.00
2013-6-21,83.9,70.3,55.8,64.7,58.9,53.2,99,71,39,30.24,30.16,10,1,12,0.00
2013-6-22,81.6,71.3,62.5,73.2,68.6,61.4,100,92,71,30.19,30.09,7,0,10,0.23
2013-6-23,86.5,74.1,65.4,78.4,71.6,65.3,100,93,71,30.19,30.09,8,0,10,0.03
2013-6-24,87.1,76.1,68.4,80.5,73.6,68.2,100,93,74,30.18,30.06,10,1,12,0.01
2013-6-25,90.0,76.1,67.8,80.0,72.2,67.7,100,89,62,30.10,29.97,11,1,11,0.00
2013-6-26,90.7,76.1,68.2,79.9,72.3,67.8,100,90,60,30.00,29.84,17,1,20,0.79
2013-6-27,88.3,76.8,66.7,81.5,73.7,66.6,100,91,71,29.91,29.68,11,1,14,0.14
2013-6-28,90.2,77.4,69.1,80.7,73.7,68.5,100,90,65,29.71,29.54,23,1,25,1.71
2013-6-29,85.9,74.9,68.0,77.8,72.8,67.9,100,94,75,29.69,29.56,6,0,9,0.16
2013-6-30,86.2,73.8,68.8,79.1,72.4,68.7,100,96,73,29.82,29.67,13,1,21,0.90
2013-7-1,82.3,73.9,68.5,77.8,72.3,68.4,100,95,82,29.96,29.81,10,1,13,0.80
2013-7-2,76.4,73.0,71.1,75.5,72.8,70.7,100,100,96,30.15,29.96,11,1,11,0.28
2013-7-3,84.8,75.8,71.9,80.5,74.7,71.8,100,97,81,30.21,30.12,12,1,17,0.29
2013-7-4,84.8,76.6,71.3,80.6,75.2,71.2,100,96,83,30.24,30.14,11,1,15,0.80
2013-7-5,88.3,78.0,70.2,80.7,75.0,70.1,100,91,71,30.24,30.12,10,1,11,0.00
2013-7-6,87.1,78.0,70.0,80.3,74.7,69.9,100,90,73,30.22,30.08,7,0,11,0.00
2013-7-7,88.0,76.9,67.7,82.0,74.2,67.6,100,92,75,30.16,30.02,13,1,18,0.39
2013-7-8,89.3,77.9,71.6,80.0,75.0,71.5,100,92,71,30.15,30.06,6,0,10,0.01
2013-7-9,88.8,77.5,71.2,81.6,75.2,69.7,100,93,76,30.13,30.02,9,1,14,0.00
2013-7-10,88.8,77.9,70.3,80.4,75.1,69.5,100,92,74,30.07,29.90,16,1,16,0.87
2013-7-11,78.7,74.2,71.3,78.0,73.9,71.2,100,99,94,29.94,29.84,7,0,8,0.11
2013-7-12,75.6,72.0,69.3,74.4,71.3,69.2,100,98,90,30.00,29.84,11,1,11,0.06
2013-7-13,77.5,72.9,68.9,76.7,72.5,68.8,100,99,94,30.14,29.98,11,1,13,0.13
2013-7-14,88.6,77.1,70.4,79.3,74.3,70.3,100,92,65,30.26,30.14,14,1,16,0.33
2013-7-15,91.4,77.8,67.5,79.4,73.2,67.4,100,88,56,30.29,30.21,5,0,6,0.00
2013-7-16,95.3,80.8,67.2,81.7,74.7,67.1,100,84,53,30.25,30.15,6,0,6,0.00
2013-7-17,94.0,82.7,73.9,82.0,77.3,73.8,100,86,58,30.19,30.07,7,0,10,0.00
2013-7-18,94.8,82.2,72.5,82.1,76.3,72.4,100,85,55,30.11,29.99,6,0,7,0.00
2013-7-19,90.8,81.1,73.0,81.5,76.8,72.9,100,88,69,30.07,29.94,10,1,12,0.00
2013-7-20,89.0,79.3,73.6,80.1,75.8,72.3,99,90,71,30.00,29.88,11,1,11,0.00
2013-7-21,88.1,77.7,72.1,80.5,74.8,72.0,100,92,73,29.95,29.86,10,1,11,0.02
2013-7-22,88.0,77.4,70.7,80.1,74.7,70.6,100,92,73,29.92,29.79,11,0,11,0.00
2013-7-23,89.5,79.1,72.4,79.1,74.8,71.7,100,88,65,29.81,29.68,11,1,13,0.01
2013-7-24,92.3,78.9,67.9,80.5,73.3,67.8,100,85,55,29.81,29.70,6,0,7,0.08
2013-7-25,81.2,73.0,66.3,71.6,67.5,63.7,98,84,68,30.02,29.79,11,1,12,0.00
2013-7-26,85.0,72.3,61.1,71.3,66.4,61.0,100,84,57,30.08,29.99,5,0,6,0.00
2013-7-27,84.5,71.0,64.1,76.4,69.2,64.0,100,95,72,30.02,29.91,18,0,21,0.73
2013-7-28,87.1,75.3,67.1,77.4,72.2,67.0,100,91,66,29.98,29.89,9,0,9,0.09
2013-7-29,86.3,74.6,66.3,71.3,68.0,62.8,100,83,50,30.13,29.96,10,1,11,0.01
2013-7-30,86.3,73.2,60.1,72.7,66.6,60.0,100,83,51,30.20,30.11,8,0,9,0.00
2013-7-31,84.4,75.3,69.5,76.7,72.7,69.2,100,92,74,30.12,29.96,12,0,13,0.25
2013-8-1,86.5,74.2,70.0,78.7,72.9,69.8,100,96,72,29.98,29.84,8,0,13,0.51
2013-8-2,89.0,76.3,65.6,75.3,70.7,65.5,100,85,53,29.99,29.88,5,0,7,0.00
2013-8-3,89.5,77.9,69.2,81.4,74.9,69.1,100,92,71,29.98,29.87,10,0,13,0.00
2013-8-4,86.4,75.4,66.1,74.7,69.1,61.4,100,84,45,30.00,29.86,11,1,16,0.00
2013-8-5,83.2,72.2,63.0,70.7,66.6,62.8,100,84,55,30.06,29.96,7,0,7,0.00
2013-8-6,81.3,72.6,65.6,71.4,67.5,64.3,100,85,66,30.04,29.96,10,1,12,0.28
2013-8-7,86.5,75.9,67.7,75.3,71.2,67.3,100,87,62,30.07,29.99,7,0,10,0.00
2013-8-8,88.3,77.2,69.0,78.3,73.6,68.9,100,90,70,30.04,29.96,6,0,9,0.00
2013-8-9,91.2,78.7,72.1,81.1,75.2,72.0,100,90,70,30.02,29.94,11,1,12,0.00
2013-8-10,93.5,78.0,72.1,82.6,75.4,71.2,100,93,66,30.06,29.97,27,1,27,0.14
2013-8-11,92.4,79.0,69.7,81.5,74.9,69.6,100,89,60,30.08,29.97,6,0,7,0.00
2013-8-12,93.0,79.9,70.0,78.7,74.6,69.8,100,86,54,30.02,29.90,14,1,14,0.19
2013-8-13,89.0,77.0,70.0,81.1,74.8,69.9,100,94,72,29.94,29.75,14,1,15,0.30
2013-8-14,77.8,70.9,60.8,71.8,67.8,60.0,100,91,70,30.06,29.79,10,0,10,0.00
2013-8-15,76.4,64.9,56.9,63.8,59.2,56.0,100,84,52,30.14,30.05,9,0,10,0.00
2013-8-16,71.5,63.6,55.8,65.0,60.7,55.7,100,91,76,30.15,30.07,4,0,5,0.00
2013-8-17,69.4,64.7,59.0,69.3,64.4,58.4,100,99,94,30.16,30.09,6,0,7,0.49
2013-8-18,81.0,71.5,66.5,73.7,69.4,65.7,100,94,76,30.18,30.08,11,1,11,0.12
2013-8-19,74.5,68.5,65.4,73.5,68.3,65.3,100,99,94,30.16,30.07,6,0,8,0.21
2013-8-20,83.7,72.3,64.1,77.4,70.2,64.0,100,94,75,30.16,30.08,4,0,5,0.00
2013-8-21,85.8,75.0,70.8,79.8,73.8,70.2,100,97,79,30.19,30.11,16,0,21,1.21
2013-8-22,88.1,79.8,71.3,80.3,75.8,71.2,100,89,68,30.11,29.96,7,0,9,0.00
2013-8-23,87.1,74.9,65.9,78.7,71.9,65.4,100,91,69,30.05,29.90,13,1,15,0.00
2013-8-24,83.4,71.3,61.9,67.2,63.5,60.1,99,79,49,30.28,30.05,13,1,13,0.00
2013-8-25,80.3,67.7,57.0,68.0,61.2,56.8,100,82,50,30.37,30.26,11,1,12,0.00
2013-8-26,84.0,66.9,53.3,66.6,59.9,53.2,100,82,42,30.30,30.09,6,0,7,0.01
2013-8-27,90.5,73.3,59.3,77.3,68.7,59.2,100,88,56,30.10,29.94,9,0,10,0.00
2013-8-28,84.8,75.0,65.8,79.7,73.8,65.7,100,97,82,29.96,29.84,5,0,6,0.00
2013-8-29,88.2,78.5,70.0,78.5,74.4,69.5,100,88,67,29.98,29.81,10,1,11,0.00
2013-8-30,88.9,74.4,64.5,74.4,68.5,64.1,100,85,47,30.04,29.91,10,0,10,0.00
2013-8-31,88.1,75.3,65.0,79.0,72.1,64.9,100,91,69,29.94,29.83,10,0,11,0.00
2013-9-1,90.8,76.0,68.3,81.8,73.5,68.2,100,93,72,29.87,29.74,17,1,24,0.81
2013-9-2,88.3,76.2,67.6,80.0,73.6,67.5,100,92,73,29.86,29.76,4,0,5,0.01
2013-9-3,89.7,77.1,68.7,79.1,73.7,68.6,100,91,64,29.90,29.76,9,0,9,0.00
2013-9-4,87.4,73.8,62.2,75.8,69.4,62.1,100,88,62,30.06,29.90,7,0,7,0.00
2013-9-5,88.7,73.2,63.2,71.3,65.4,58.8,100,81,39,30.08,30.00,10,0,10,0.01
2013-9-6,82.3,69.9,59.0,66.3,62.3,58.6,100,80,50,30.16,30.06,9,0,11,0.00
2013-9-7,84.3,68.0,55.1,70.1,63.0,55.0,100,86,54,30.12,29.95,6,0,7,0.01
2013-9-8,88.8,72.6,59.4,71.8,65.0,59.3,100,81,42,29.96,29.88,9,0,9,0.00
2013-9-9,89.5,74.6,62.6,73.9,68.5,62.5,100,84,51,30.12,29.96,7,0,10,0.00
2013-9-10,91.8,76.1,64.1,76.4,69.8,64.0,100,84,47,30.20,30.11,7,0,7,0.00
2013-9-11,91.0,75.5,64.0,77.0,70.0,63.9,100,85,53,30.18,30.04,9,0,11,0.00
2013-9-12,91.0,76.1,66.2,76.9,70.5,65.7,100,85,57,30.04,29.78,7,0,10,0.00
2013-9-13,84.1,72.7,61.1,71.2,64.7,55.5,100,79,47,29.87,29.73,12,1,14,0.00
2013-9-14,77.5,63.9,54.2,59.6,53.3,49.1,96,71,47,30.11,29.88,12,1,12,0.00
2013-9-15,80.3,63.8,49.5,65.0,57.6,49.4,100,83,50,30.22,30.09,6,0,6,0.00
2013-9-16,85.9,72.3,61.0,73.9,64.9,59.0,100,81,46,30.16,30.01,11,1,15,0.01
2013-9-17,77.7,65.8,53.5,59.1,54.6,50.6,94,70,42,30.29,30.16,12,1,15,0.00
2013-9-18,75.4,60.8,48.5,55.9,50.8,44.8,99,74,36,30.27,30.16,9,0,9,0.01
2013-9-19,77.0,63.2,50.8,64.8,58.2,50.3,100,86,56,30.18,30.05,5,0,6,0.00
2013-9-20,69.2,65.6,62.9,68.5,65.1,62.0,100,98,90,30.06,29.93,8,0,8,0.21
2013-9-21,78.7,69.1,63.7,72.3,67.6,63.6,100,96,79,29.94,29.70,12,0,12,0.31
2013-9-22,77.5,66.2,55.7,64.5,61.3,55.1,100,86,54,29.88,29.68,13,1,14,0.25
2013-9-23,75.0,60.2,49.8,58.3,54.0,49.7,100,83,50,30.05,29.88,10,0,10,0.01
2013-9-24,78.2,61.6,50.9,62.9,56.9,50.6,100,87,51,30.08,29.92,6,0,6,0.00
2013-9-25,71.2,60.8,48.5,65.3,58.3,48.4,100,93,75,29.94,29.85,4,0,4,0.01
2013-9-26,77.1,64.1,53.8,64.3,57.9,52.8,100,83,44,30.02,29.85,11,1,12,0.00
2013-9-27,75.8,60.1,48.6,63.7,54.7,48.5,100,85,52,30.17,30.02,9,1,11,0.01
2013-9-28,71.8,58.2,46.7,59.9,52.7,46.6,100,84,55,30.25,30.15,15,1,15,0.01
2013-9-29,74.8,58.6,48.2,62.0,52.9,48.1,100,84,48,30.16,30.01,9,1,10,0.00
2013-9-30,77.3,58.7,46.2,63.4,53.9,46.1,100,87,49,30.09,29.97,10,0,13,0.01
2013-10-1,83.1,63.0,46.8,66.1,57.1,46.7,100,84,47,30.11,29.99,14,0,14,0.00
2013-10-2,85.7,66.3,50.6,68.0,58.7,50.5,100,81,42,30.12,30.02,10,0,10,0.00
2013-10-3,86.1,68.4,55.0,69.7,61.4,54.9,100,82,45,30.11,30.02,11,0,12,0.00
2013-10-4,88.1,69.9,56.0,71.2,63.1,55.9,100,83,45,30.11,30.02,7,0,11,0.01
2013-10-5,90.0,70.8,57.0,72.6,64.2,56.9,100,83,44,30.10,29.99,2,0,3,0.00
2013-10-6,85.0,70.7,57.5,73.1,66.3,57.4,100,88,56,30.05,29.89,12,1,13,0.00
2013-10-7,71.6,69.0,62.3,70.8,68.2,57.9,100,98,85,29.98,29.81,12,1,12,1.51
2013-10-8,62.7,59.1,56.2,57.6,51.8,48.4,85,77,70,30.19,29.97,13,2,16,0.00
2013-10-9,66.8,58.4,53.7,58.9,53.1,49.6,96,83,73,30.17,30.08,14,2,17,0.05
2013-10-10,61.4,56.6,52.7,61.2,55.9,51.5,100,98,95,30.08,29.92,12,2,13,0.26
2013-10-11,71.5,63.4,59.0,64.4,60.8,57.5,99,92,77,29.95,29.88,11,1,12,0.00
2013-10-12,67.1,62.5,57.2,66.1,62.0,57.1,100,99,93,30.06,29.93,6,0,7,0.01
2013-10-13,67.2,63.0,60.5,65.0,62.3,60.1,100,98,93,30.18,30.05,11,1,12,0.05
2013-10-14,64.6,60.8,55.2,63.2,60.2,54.9,100,98,93,30.22,30.15,9,1,10,0.14
2013-10-15,73.9,61.5,50.4,61.6,56.8,50.3,100,87,61,30.19,30.03,10,1,11,0.01
2013-10-16,72.8,63.8,59.6,63.8,61.0,59.2,100,91,72,30.04,29.93,5,0,5,0.00
2013-10-17,73.1,65.3,58.3,67.2,63.1,58.1,100,93,78,29.95,29.81,7,0,9,0.00
2013-10-18,69.1,61.2,51.4,64.6,54.5,48.2,100,81,53,30.02,29.85,7,0,11,0.00
2013-10-19,69.5,60.2,54.8,63.5,58.2,53.1,100,94,77,29.96,29.78,6,0,6,0.01
2013-10-20,67.3,52.4,41.4,55.1,45.6,40.0,100,81,43,30.11,29.88,11,1,11,0.01
2013-10-21,69.5,50.0,34.7,53.4,44.3,34.2,100,84,46,30.16,29.98,5,0,7,0.01
2013-10-22,66.0,56.6,49.4,59.4,54.7,48.8,100,94,73,29.99,29.78,4,0,5,0.00
2013-10-23,67.1,57.3,43.1,58.2,46.8,30.9,100,73,34,30.00,29.66,23,2,24,0.00
2013-10-24,58.3,44.4,31.9,39.4,34.2,29.4,97,70,40,30.17,30.00,16,1,17,0.00
2013-10-25,56.1,43.9,31.4,36.9,32.2,27.5,96,67,35,30.37,30.16,14,1,16,0.00
2013-10-26,60.0,41.7,25.6,39.1,31.4,24.4,99,72,36,30.36,30.06,11,0,12,0.00
2013-10-27,69.8,51.4,36.6,46.4,40.4,34.2,97,70,36,30.11,30.01,11,0,12,0.00
2013-10-28,67.5,51.8,39.4,55.1,47.9,38.1,99,88,59,30.25,30.10,3,0,4,0.00
2013-10-29,73.2,56.9,46.4,59.0,52.5,46.1,100,87,56,30.32,30.22,7,0,7,0.00
2013-10-30,76.4,58.3,46.8,61.6,54.4,46.5,100,89,55,30.28,30.13,10,0,12,0.00
2013-10-31,73.3,61.9,51.9,62.9,57.7,51.8,100,87,66,30.18,29.88,9,0,11,0.01
2013-11-1,70.8,66.8,60.8,67.0,64.6,60.6,100,93,83,29.88,29.63,16,2,17,0.48
2013-11-2,70.2,58.8,45.0,60.7,51.7,41.9,100,81,38,29.93,29.68,20,1,24,0.04
2013-11-3,63.6,48.0,35.9,41.8,38.1,34.3,95,72,37,30.36,29.93,14,1,16,0.00
2013-11-4,56.7,41.4,29.7,39.8,32.9,28.9,99,75,40,30.54,30.36,9,1,12,0.00
2013-11-5,57.1,45.3,32.1,47.0,39.0,29.3,91,80,61,30.54,30.41,10,1,10,0.00
2013-11-6,71.3,54.5,40.3,56.2,48.7,39.5,100,83,57,30.41,30.09,6,0,7,0.00
2013-11-7,67.7,56.8,43.3,62.7,51.0,32.3,100,82,52,30.09,29.90,13,2,14,0.01
2013-11-8,57.2,43.2,29.7,35.0,28.6,24.1,92,60,30,30.33,30.09,16,1,17,0.00
2013-11-9,59.0,41.3,26.0,36.3,30.3,24.8,98,70,32,30.38,30.17,10,0,13,0.00
2013-11-10,71.8,49.8,31.9,42.6,34.9,30.0,98,63,24,30.23,30.04,17,1,23,0.00
2013-11-11,60.4,43.1,28.3,35.1,29.6,25.6,94,63,30,30.35,30.13,6,0,7,0.00
2013-11-12,59.9,38.5,28.8,42.2,31.6,19.4,99,79,42,30.42,30.05,15,1,18,0.03
2013-11-13,45.4,31.6,22.6,22.3,18.4,15.7,84,60,33,30.54,30.42,13,1,15,0.00
2013-11-14,57.4,35.0,18.2,30.5,21.3,15.5,94,64,24,30.47,30.33,11,0,12,0.00
2013-11-15,60.2,41.9,23.7,44.6,33.8,20.7,95,75,44,30.36,30.20,6,0,7,0.00
2013-11-16,65.8,54.1,45.5,56.8,50.7,41.9,100,89,72,30.26,30.18,9,0,10,0.01
2013-11-17,67.6,59.1,51.2,64.3,58.0,51.1,100,97,84,30.20,29.85,9,0,13,0.07
2013-11-18,75.8,64.3,48.9,67.4,53.5,30.0,100,72,36,29.96,29.77,20,2,20,0.07
2013-11-19,56.2,45.9,35.1,31.4,28.2,25.9,84,52,33,30.30,29.95,16,2,18,0.00
2013-11-20,53.1,41.3,32.9,32.9,28.8,24.3,88,62,45,30.45,30.30,11,1,13,0.00
2013-11-21,60.9,48.3,34.4,47.4,40.2,31.2,92,74,59,30.50,30.36,9,1,9,0.00
2013-11-22,69.4,57.0,44.9,59.1,50.7,40.9,91,80,69,30.38,30.06,11,1,15,0.01
2013-11-23,60.8,53.4,40.0,58.5,41.1,18.8,100,66,32,30.17,30.02,13,1,17,0.01
2013-11-24,40.6,31.2,19.9,21.3,8.8,0.0,73,41,23,30.55,30.17,20,3,20,0.00
2013-11-25,42.9,28.6,15.0,21.5,12.8,4.3,86,56,21,30.60,30.37,7,0,10,0.00
2013-11-26,63.0,41.4,34.4,62.9,33.3,14.9,100,76,41,30.37,29.59,14,1,18,1.07
2013-11-27,44.7,37.7,26.1,44.6,34.6,18.9,100,89,65,30.18,29.48,18,3,20,0.53
2013-11-28,42.7,29.8,20.3,22.7,19.4,16.1,89,67,38,30.49,30.18,11,1,13,0.00
2013-11-29,50.7,32.2,19.7,29.5,22.7,17.8,95,72,37,30.63,30.47,12,1,13,0.00
2013-11-30,48.7,32.5,21.2,32.1,25.0,18.7,91,76,51,30.66,30.37,10,1,12,0.00
2013-12-1,59.3,38.2,23.3,36.5,29.6,21.8,97,75,37,30.37,30.02,5,0,7,0.01
2013-12-2,60.7,43.0,31.6,43.4,36.3,29.0,96,79,49,30.02,29.80,7,0,7,0.00
2013-12-3,53.7,42.7,29.0,46.9,39.4,28.0,100,89,71,29.98,29.86,6,0,7,0.00
2013-12-4,61.7,54.2,48.3,57.3,52.3,45.6,100,94,85,30.07,29.95,4,0,5,0.01
2013-12-5,65.6,60.7,53.9,65.3,60.5,53.8,100,100,97,30.10,30.00,10,1,10,0.06
2013-12-6,77.0,68.9,64.1,68.0,64.9,63.1,100,88,71,30.04,29.94,18,2,20,0.01
2013-12-7,67.6,48.5,41.6,65.4,45.1,34.7,97,88,76,30.44,29.96,13,2,18,0.20
2013-12-8,41.5,34.7,32.2,35.6,31.5,29.3,98,89,70,30.46,30.29,10,1,12,0.15
2013-12-9,43.5,38.1,32.8,43.4,37.9,32.3,100,99,98,30.30,30.05,5,0,5,0.23
2013-12-10,47.6,41.3,26.3,45.6,38.8,24.3,100,92,55,30.32,29.90,13,1,19,0.33
2013-12-11,48.6,32.2,20.1,29.8,24.9,18.9,98,78,37,30.46,30.28,9,0,10,0.01
2013-12-12,43.9,31.5,22.2,25.2,20.9,15.5,95,68,35,30.42,30.27,13,1,13,0.00
2013-12-13,51.2,32.4,17.8,28.6,21.7,15.4,95,70,28,30.40,30.26,11,0,11,0.00
2013-12-14,45.9,38.4,32.9,41.2,35.2,28.3,99,89,56,30.29,29.78,15,1,17,0.73
2013-12-15,53.1,40.6,28.2,45.7,34.6,25.3,100,82,49,30.07,29.70,22,2,22,0.03
2013-12-16,55.7,37.7,24.7,35.6,29.9,23.4,98,77,43,30.17,30.06,7,0,7,0.00
2013-12-17,61.2,43.8,26.5,38.9,32.5,25.0,99,68,41,30.12,29.87,21,1,22,0.00
2013-12-18,49.8,38.5,25.2,29.5,20.3,14.9,82,50,26,30.29,30.00,15,2,20,0.00
2013-12-19,62.3,41.0,22.5,31.3,24.0,18.7,93,58,19,30.32,30.20,14,1,16,0.00
2013-12-20,65.5,50.2,34.7,52.8,41.4,28.7,90,73,53,30.24,30.09,13,1,14,0.00
2013-12-21,73.1,58.4,42.7,64.8,53.8,41.1,100,86,66,30.13,30.00,17,1,20,0.00
2013-12-22,76.6,69.1,62.2,67.2,64.2,59.7,100,86,65,30.07,29.98,17,2,18,0.20
2013-12-23,64.5,58.4,44.9,64.4,57.2,36.6,100,96,71,30.16,29.97,15,1,17,1.17
2013-12-24,46.3,39.2,27.3,37.4,26.1,12.0,76,60,40,30.45,30.12,17,3,20,0.00
2013-12-25,38.8,27.3,19.1,18.2,12.3,8.7,92,55,30,30.56,30.40,9,1,9,0.00
2013-12-26,52.1,33.9,20.1,30.3,24.2,16.3,92,71,34,30.40,30.24,10,1,10,0.04
2013-12-27,52.4,32.2,19.5,30.4,21.9,17.3,96,71,28,30.47,30.36,6,0,6,0.00
2013-12-28,58.2,38.0,19.9,37.4,27.2,17.6,98,70,27,30.42,30.14,6,0,6,0.00
2013-12-29,53.0,45.1,37.0,51.7,43.7,36.6,100,95,79,30.14,29.71,14,1,18,1.54
2013-12-30,52.8,41.0,30.1,48.3,37.9,29.8,100,90,69,30.13,29.92,10,0,11,0.01
2013-12-31,49.7,38.7,26.8,37.6,29.8,21.8,96,74,34,30.36,30.10,25,1,25,0.00
2014-1-1,50.2,35.4,26.1,31.3,26.6,23.4,96,74,36,30.42,30.15,9,0,9,0.00
2014-1-2,45.8,39.7,31.4,44.4,36.5,28.1,99,89,73,30.15,29.57,17,1,18,0.30